sensor_id;sensor_type;location;lat;lon;timestamp;P1;durP1;ratioP1;P2;durP2;ratioP2
11447;SDS011;43755;49.736;8.734;2022-07-29T00:01:26;2.77;;;1.87;;
11447;SDS011;43755;49.736;8.734;2022-07-29T00:03:27;3.67;;;1.90;;
11447;SDS011;43755;49.736;8.734;2022-07-29T00:05:28;3.73;;;1.90;;
11447;SDS011;43755;49.736;8.734;2022-07-29T00:07:31;2.40;;;1.67;;
11447;SDS011;43755;49.736;8.734;2022-07-29T00:09:32;4.33;;;1.73;;
11447;SDS011;43755;49.736;8.734;2022-07-29T00:11:34;3.23;;;1.90;;
11447;SDS011;43755;49.736;8.734;2022-07-29T00:13:36;2.73;;;1.83;;
11447;SDS011;43755;49.736;8.734;2022-07-29T00:15:37;3.13;;;1.90;;
11447;SDS011;43755;49.736;8.734;2022-07-29T00:17:39;1.83;;;1.73;;
11447;SDS011;43755;49.736;8.734;2022-07-29T00:19:40;2.60;;;2.07;;
11447;SDS011;43755;49.736;8.734;2022-07-29T00:21:41;1.90;;;1.77;;
11447;SDS011;43755;49.736;8.734;2022-07-29T00:23:44;1.80;;;1.70;;
11447;SDS011;43755;49.736;8.734;2022-07-29T00:25:46;2.67;;;1.80;;
11447;SDS011;43755;49.736;8.734;2022-07-29T00:27:47;1.87;;;1.70;;
11447;SDS011;43755;49.736;8.734;2022-07-29T00:29:48;5.90;;;1.77;;
11447;SDS011;43755;49.736;8.734;2022-07-29T00:31:50;3.63;;;2.10;;
11447;SDS011;43755;49.736;8.734;2022-07-29T00:33:51;3.63;;;1.90;;
11447;SDS011;43755;49.736;8.734;2022-07-29T00:35:53;2.17;;;1.97;;
11447;SDS011;43755;49.736;8.734;2022-07-29T00:37:53;2.13;;;1.73;;
11447;SDS011;43755;49.736;8.734;2022-07-29T00:39:56;1.70;;;1.60;;
11447;SDS011;43755;49.736;8.734;2022-07-29T00:41:58;2.47;;;1.90;;
11447;SDS011;43755;49.736;8.734;2022-07-29T00:43:59;2.37;;;1.70;;
11447;SDS011;43755;49.736;8.734;2022-07-29T00:46:01;2.00;;;1.87;;
11447;SDS011;43755;49.736;8.734;2022-07-29T00:48:02;2.00;;;1.80;;
11447;SDS011;43755;49.736;8.734;2022-07-29T00:50:05;2.70;;;1.77;;
11447;SDS011;43755;49.736;8.734;2022-07-29T00:52:08;4.00;;;2.20;;
11447;SDS011;43755;49.736;8.734;2022-07-29T00:54:11;2.17;;;1.92;;
11447;SDS011;43755;49.736;8.734;2022-07-29T00:56:14;2.20;;;1.80;;
11447;SDS011;43755;49.736;8.734;2022-07-29T00:58:16;5.28;;;2.00;;
11447;SDS011;43755;49.736;8.734;2022-07-29T01:00:18;2.20;;;2.00;;
11447;SDS011;43755;49.736;8.734;2022-07-29T01:02:21;2.00;;;1.73;;
11447;SDS011;43755;49.736;8.734;2022-07-29T01:04:22;1.83;;;1.73;;
11447;SDS011;43755;49.736;8.734;2022-07-29T01:06:24;2.78;;;1.95;;
11447;SDS011;43755;49.736;8.734;2022-07-29T01:08:25;2.65;;;1.80;;
11447;SDS011;43755;49.736;8.734;2022-07-29T01:10:27;1.90;;;1.80;;
11447;SDS011;43755;49.736;8.734;2022-07-29T01:12:32;1.85;;;1.75;;
11447;SDS011;43755;49.736;8.734;2022-07-29T01:14:36;2.05;;;1.95;;
11447;SDS011;43755;49.736;8.734;2022-07-29T01:16:42;3.28;;;1.90;;
11447;SDS011;43755;49.736;8.734;2022-07-29T01:18:46;2.60;;;1.90;;
11447;SDS011;43755;49.736;8.734;2022-07-29T01:21:03;2.80;;;1.90;;
11447;SDS011;43755;49.736;8.734;2022-07-29T01:26:04;2.78;;;1.95;;
11447;SDS011;43755;49.736;8.734;2022-07-29T01:30:59;2.00;;;1.90;;
11447;SDS011;43755;49.736;8.734;2022-07-29T01:33:06;3.53;;;2.00;;
11447;SDS011;43755;49.736;8.734;2022-07-29T01:35:14;2.47;;;1.90;;
11447;SDS011;43755;49.736;8.734;2022-07-29T01:37:20;1.80;;;1.70;;
11447;SDS011;43755;49.736;8.734;2022-07-29T01:39:26;2.20;;;1.88;;
11447;SDS011;43755;49.736;8.734;2022-07-29T01:41:31;3.10;;;1.83;;
11447;SDS011;43755;49.736;8.734;2022-07-29T01:43:39;1.98;;;1.77;;
11447;SDS011;43755;49.736;8.734;2022-07-29T01:45:48;2.22;;;1.77;;
11447;SDS011;43755;49.736;8.734;2022-07-29T01:47:56;1.95;;;1.85;;
11447;SDS011;43755;49.736;8.734;2022-07-29T01:50:01;3.72;;;2.10;;
11447;SDS011;43755;49.736;8.734;2022-07-29T01:52:08;2.47;;;1.90;;
11447;SDS011;43755;49.736;8.734;2022-07-29T01:54:18;2.58;;;2.00;;
11447;SDS011;43755;49.736;8.734;2022-07-29T01:56:23;2.53;;;2.00;;
11447;SDS011;43755;49.736;8.734;2022-07-29T01:58:29;2.55;;;2.10;;
11447;SDS011;43755;49.736;8.734;2022-07-29T02:00:33;2.22;;;2.03;;
11447;SDS011;43755;49.736;8.734;2022-07-29T02:02:37;2.65;;;2.00;;
11447;SDS011;43755;49.736;8.734;2022-07-29T02:04:40;2.30;;;1.90;;
11447;SDS011;43755;49.736;8.734;2022-07-29T02:06:43;3.17;;;1.90;;
11447;SDS011;43755;49.736;8.734;2022-07-29T02:08:46;2.20;;;2.00;;
11447;SDS011;43755;49.736;8.734;2022-07-29T02:10:50;3.15;;;2.22;;
11447;SDS011;43755;49.736;8.734;2022-07-29T02:12:53;2.22;;;2.03;;
11447;SDS011;43755;49.736;8.734;2022-07-29T02:14:56;2.22;;;1.90;;
11447;SDS011;43755;49.736;8.734;2022-07-29T02:17:02;2.10;;;1.90;;
11447;SDS011;43755;49.736;8.734;2022-07-29T02:19:05;2.08;;;1.90;;
11447;SDS011;43755;49.736;8.734;2022-07-29T02:21:08;2.40;;;1.80;;
11447;SDS011;43755;49.736;8.734;2022-07-29T02:23:11;1.80;;;1.67;;
11447;SDS011;43755;49.736;8.734;2022-07-29T02:25:13;2.25;;;2.05;;
11447;SDS011;43755;49.736;8.734;2022-07-29T02:27:17;2.20;;;2.00;;
11447;SDS011;43755;49.736;8.734;2022-07-29T02:29:21;2.85;;;2.13;;
11447;SDS011;43755;49.736;8.734;2022-07-29T02:31:25;4.03;;;2.08;;
11447;SDS011;43755;49.736;8.734;2022-07-29T02:33:30;2.20;;;2.00;;
11447;SDS011;43755;49.736;8.734;2022-07-29T02:35:34;3.08;;;1.88;;
11447;SDS011;43755;49.736;8.734;2022-07-29T02:37:37;6.05;;;1.83;;
11447;SDS011;43755;49.736;8.734;2022-07-29T02:39:40;2.38;;;2.08;;
11447;SDS011;43755;49.736;8.734;2022-07-29T02:41:47;4.03;;;1.88;;
11447;SDS011;43755;49.736;8.734;2022-07-29T02:43:53;1.98;;;1.73;;
11447;SDS011;43755;49.736;8.734;2022-07-29T02:45:57;2.00;;;1.90;;
11447;SDS011;43755;49.736;8.734;2022-07-29T02:48:03;2.22;;;2.00;;
11447;SDS011;43755;49.736;8.734;2022-07-29T02:50:08;3.17;;;2.08;;
11447;SDS011;43755;49.736;8.734;2022-07-29T02:52:17;1.90;;;1.80;;
11447;SDS011;43755;49.736;8.734;2022-07-29T02:54:23;2.67;;;2.00;;
11447;SDS011;43755;49.736;8.734;2022-07-29T02:56:27;7.90;;;1.90;;
11447;SDS011;43755;49.736;8.734;2022-07-29T02:58:37;2.47;;;1.90;;
11447;SDS011;43755;49.736;8.734;2022-07-29T03:00:41;3.55;;;1.90;;
11447;SDS011;43755;49.736;8.734;2022-07-29T03:02:45;5.60;;;2.17;;
11447;SDS011;43755;49.736;8.734;2022-07-29T03:04:53;2.90;;;1.83;;
11447;SDS011;43755;49.736;8.734;2022-07-29T03:06:56;2.75;;;1.83;;
11447;SDS011;43755;49.736;8.734;2022-07-29T03:09:01;5.25;;;2.03;;
11447;SDS011;43755;49.736;8.734;2022-07-29T03:11:03;3.60;;;2.00;;
11447;SDS011;43755;49.736;8.734;2022-07-29T03:13:05;2.78;;;1.92;;
11447;SDS011;43755;49.736;8.734;2022-07-29T03:15:08;4.95;;;2.40;;
11447;SDS011;43755;49.736;8.734;2022-07-29T03:17:10;3.10;;;1.95;;
11447;SDS011;43755;49.736;8.734;2022-07-29T03:19:12;5.57;;;2.30;;
11447;SDS011;43755;49.736;8.734;2022-07-29T03:21:14;2.45;;;2.30;;
11447;SDS011;43755;49.736;8.734;2022-07-29T03:23:18;5.00;;;2.10;;
11447;SDS011;43755;49.736;8.734;2022-07-29T03:25:22;3.40;;;2.10;;
11447;SDS011;43755;49.736;8.734;2022-07-29T03:27:23;3.95;;;2.00;;
11447;SDS011;43755;49.736;8.734;2022-07-29T03:29:25;3.13;;;2.10;;
11447;SDS011;43755;49.736;8.734;2022-07-29T03:31:27;3.15;;;2.10;;
11447;SDS011;43755;49.736;8.734;2022-07-29T03:33:28;5.78;;;2.42;;
11447;SDS011;43755;49.736;8.734;2022-07-29T03:35:30;2.22;;;2.03;;
11447;SDS011;43755;49.736;8.734;2022-07-29T03:37:32;5.20;;;2.03;;
11447;SDS011;43755;49.736;8.734;2022-07-29T03:39:37;3.78;;;1.98;;
11447;SDS011;43755;49.736;8.734;2022-07-29T03:41:42;4.57;;;2.10;;
11447;SDS011;43755;49.736;8.734;2022-07-29T03:43:46;2.78;;;2.15;;
11447;SDS011;43755;49.736;8.734;2022-07-29T03:45:51;5.13;;;2.35;;
11447;SDS011;43755;49.736;8.734;2022-07-29T03:47:57;4.95;;;2.20;;
11447;SDS011;43755;49.736;8.734;2022-07-29T03:50:06;5.20;;;2.10;;
11447;SDS011;43755;49.736;8.734;2022-07-29T03:52:09;2.35;;;2.03;;
11447;SDS011;43755;49.736;8.734;2022-07-29T03:54:11;5.18;;;2.22;;
11447;SDS011;43755;49.736;8.734;2022-07-29T03:56:14;4.35;;;2.33;;
11447;SDS011;43755;49.736;8.734;2022-07-29T03:58:19;4.68;;;2.00;;
11447;SDS011;43755;49.736;8.734;2022-07-29T04:00:21;4.00;;;1.95;;
11447;SDS011;43755;49.736;8.734;2022-07-29T04:02:23;3.10;;;1.90;;
11447;SDS011;43755;49.736;8.734;2022-07-29T04:04:26;2.85;;;2.13;;
11447;SDS011;43755;49.736;8.734;2022-07-29T04:06:27;3.58;;;2.40;;
11447;SDS011;43755;49.736;8.734;2022-07-29T04:08:29;6.82;;;2.33;;
11447;SDS011;43755;49.736;8.734;2022-07-29T04:10:30;6.28;;;2.40;;
11447;SDS011;43755;49.736;8.734;2022-07-29T04:12:32;4.32;;;2.30;;
11447;SDS011;43755;49.736;8.734;2022-07-29T04:14:35;2.20;;;2.00;;
11447;SDS011;43755;49.736;8.734;2022-07-29T04:16:37;3.05;;;2.40;;
11447;SDS011;43755;49.736;8.734;2022-07-29T04:18:38;3.83;;;2.30;;
11447;SDS011;43755;49.736;8.734;2022-07-29T04:20:39;2.65;;;2.20;;
11447;SDS011;43755;49.736;8.734;2022-07-29T04:22:41;2.83;;;2.28;;
11447;SDS011;43755;49.736;8.734;2022-07-29T04:24:42;3.83;;;2.58;;
11447;SDS011;43755;49.736;8.734;2022-07-29T04:26:44;3.00;;;2.33;;
11447;SDS011;43755;49.736;8.734;2022-07-29T04:28:46;2.78;;;2.10;;
11447;SDS011;43755;49.736;8.734;2022-07-29T04:30:49;4.40;;;2.78;;
11447;SDS011;43755;49.736;8.734;2022-07-29T04:32:50;5.97;;;2.10;;
11447;SDS011;43755;49.736;8.734;2022-07-29T04:34:52;6.53;;;2.40;;
11447;SDS011;43755;49.736;8.734;2022-07-29T04:36:53;3.75;;;2.38;;
11447;SDS011;43755;49.736;8.734;2022-07-29T04:38:55;5.82;;;2.40;;
11447;SDS011;43755;49.736;8.734;2022-07-29T04:40:56;3.65;;;2.35;;
11447;SDS011;43755;49.736;8.734;2022-07-29T04:42:58;3.78;;;2.13;;
11447;SDS011;43755;49.736;8.734;2022-07-29T04:45:00;3.40;;;2.30;;
11447;SDS011;43755;49.736;8.734;2022-07-29T04:47:03;4.22;;;2.35;;
11447;SDS011;43755;49.736;8.734;2022-07-29T04:49:06;5.18;;;2.50;;
11447;SDS011;43755;49.736;8.734;2022-07-29T04:51:07;5.90;;;2.20;;
11447;SDS011;43755;49.736;8.734;2022-07-29T04:53:09;4.18;;;2.45;;
11447;SDS011;43755;49.736;8.734;2022-07-29T04:55:11;3.97;;;2.30;;
11447;SDS011;43755;49.736;8.734;2022-07-29T04:57:12;4.65;;;2.70;;
11447;SDS011;43755;49.736;8.734;2022-07-29T04:59:14;3.55;;;2.53;;
11447;SDS011;43755;49.736;8.734;2022-07-29T05:01:15;4.68;;;2.88;;
11447;SDS011;43755;49.736;8.734;2022-07-29T05:03:18;3.88;;;2.40;;
11447;SDS011;43755;49.736;8.734;2022-07-29T05:05:19;7.07;;;2.30;;
11447;SDS011;43755;49.736;8.734;2022-07-29T05:07:21;4.22;;;2.30;;
11447;SDS011;43755;49.736;8.734;2022-07-29T05:09:22;3.22;;;2.10;;
11447;SDS011;43755;49.736;8.734;2022-07-29T05:11:24;7.35;;;2.35;;
11447;SDS011;43755;49.736;8.734;2022-07-29T05:13:25;5.53;;;2.80;;
11447;SDS011;43755;49.736;8.734;2022-07-29T05:15:26;4.23;;;2.53;;
11447;SDS011;43755;49.736;8.734;2022-07-29T05:17:28;6.03;;;2.53;;
11447;SDS011;43755;49.736;8.734;2022-07-29T05:19:31;5.43;;;2.10;;
11447;SDS011;43755;49.736;8.734;2022-07-29T05:21:32;3.27;;;2.23;;
11447;SDS011;43755;49.736;8.734;2022-07-29T05:23:34;2.53;;;2.33;;
11447;SDS011;43755;49.736;8.734;2022-07-29T05:25:35;5.17;;;2.60;;
11447;SDS011;43755;49.736;8.734;2022-07-29T05:27:37;4.03;;;2.00;;
11447;SDS011;43755;49.736;8.734;2022-07-29T05:29:38;8.43;;;2.50;;
11447;SDS011;43755;49.736;8.734;2022-07-29T05:31:39;10.47;;;2.83;;
11447;SDS011;43755;49.736;8.734;2022-07-29T05:33:41;7.00;;;2.43;;
11447;SDS011;43755;49.736;8.734;2022-07-29T05:35:44;8.03;;;2.40;;
11447;SDS011;43755;49.736;8.734;2022-07-29T05:37:46;4.43;;;2.30;;
11447;SDS011;43755;49.736;8.734;2022-07-29T05:39:47;4.33;;;2.30;;
11447;SDS011;43755;49.736;8.734;2022-07-29T05:41:48;7.07;;;2.40;;
11447;SDS011;43755;49.736;8.734;2022-07-29T05:43:50;5.70;;;2.40;;
11447;SDS011;43755;49.736;8.734;2022-07-29T05:45:51;5.17;;;2.13;;
11447;SDS011;43755;49.736;8.734;2022-07-29T05:47:53;4.07;;;2.30;;
11447;SDS011;43755;49.736;8.734;2022-07-29T05:49:54;3.00;;;2.20;;
11447;SDS011;43755;49.736;8.734;2022-07-29T05:51:57;3.60;;;2.30;;
11447;SDS011;43755;49.736;8.734;2022-07-29T05:53:59;2.67;;;2.20;;
11447;SDS011;43755;49.736;8.734;2022-07-29T05:56:02;4.47;;;2.23;;
11447;SDS011;43755;49.736;8.734;2022-07-29T05:58:04;5.53;;;2.37;;
11447;SDS011;43755;49.736;8.734;2022-07-29T06:00:06;5.27;;;2.40;;
11447;SDS011;43755;49.736;8.734;2022-07-29T06:02:08;6.40;;;2.50;;
11447;SDS011;43755;49.736;8.734;2022-07-29T06:04:10;5.50;;;2.70;;
11447;SDS011;43755;49.736;8.734;2022-07-29T06:06:11;4.72;;;2.03;;
11447;SDS011;43755;49.736;8.734;2022-07-29T06:08:14;4.03;;;2.40;;
11447;SDS011;43755;49.736;8.734;2022-07-29T06:10:16;2.40;;;2.20;;
11447;SDS011;43755;49.736;8.734;2022-07-29T06:12:17;2.63;;;2.17;;
11447;SDS011;43755;49.736;8.734;2022-07-29T06:14:19;3.43;;;2.10;;
11447;SDS011;43755;49.736;8.734;2022-07-29T06:16:21;4.77;;;2.40;;
11447;SDS011;43755;49.736;8.734;2022-07-29T06:18:22;2.97;;;2.37;;
11447;SDS011;43755;49.736;8.734;2022-07-29T06:20:24;4.93;;;2.63;;
11447;SDS011;43755;49.736;8.734;2022-07-29T06:22:26;4.43;;;2.17;;
11447;SDS011;43755;49.736;8.734;2022-07-29T06:24:30;3.17;;;1.90;;
11447;SDS011;43755;49.736;8.734;2022-07-29T06:26:31;3.07;;;2.30;;
11447;SDS011;43755;49.736;8.734;2022-07-29T06:28:33;3.65;;;2.28;;
11447;SDS011;43755;49.736;8.734;2022-07-29T06:30:34;3.37;;;2.20;;
11447;SDS011;43755;49.736;8.734;2022-07-29T06:32:36;4.70;;;2.37;;
11447;SDS011;43755;49.736;8.734;2022-07-29T06:34:37;4.87;;;2.10;;
11447;SDS011;43755;49.736;8.734;2022-07-29T06:36:39;4.03;;;2.43;;
11447;SDS011;43755;49.736;8.734;2022-07-29T06:38:40;4.47;;;2.37;;
11447;SDS011;43755;49.736;8.734;2022-07-29T06:40:43;4.53;;;2.43;;
11447;SDS011;43755;49.736;8.734;2022-07-29T06:43:05;3.47;;;2.50;;
11447;SDS011;43755;49.736;8.734;2022-07-29T06:45:06;3.87;;;2.23;;
11447;SDS011;43755;49.736;8.734;2022-07-29T06:47:08;5.57;;;2.30;;
11447;SDS011;43755;49.736;8.734;2022-07-29T06:49:09;3.17;;;2.37;;
11447;SDS011;43755;49.736;8.734;2022-07-29T06:51:12;4.17;;;2.30;;
11447;SDS011;43755;49.736;8.734;2022-07-29T06:53:13;2.53;;;2.20;;
11447;SDS011;43755;49.736;8.734;2022-07-29T06:55:15;3.33;;;2.10;;
11447;SDS011;43755;49.736;8.734;2022-07-29T06:57:17;3.87;;;2.30;;
11447;SDS011;43755;49.736;8.734;2022-07-29T06:59:19;3.43;;;2.47;;
11447;SDS011;43755;49.736;8.734;2022-07-29T07:01:21;2.37;;;2.17;;
11447;SDS011;43755;49.736;8.734;2022-07-29T07:03:22;7.07;;;2.50;;
11447;SDS011;43755;49.736;8.734;2022-07-29T07:05:24;4.03;;;2.20;;
11447;SDS011;43755;49.736;8.734;2022-07-29T07:07:25;3.60;;;2.67;;
11447;SDS011;43755;49.736;8.734;2022-07-29T07:09:27;3.43;;;2.40;;
11447;SDS011;43755;49.736;8.734;2022-07-29T07:11:28;3.77;;;2.40;;
11447;SDS011;43755;49.736;8.734;2022-07-29T07:13:31;4.07;;;2.50;;
11447;SDS011;43755;49.736;8.734;2022-07-29T07:15:35;3.80;;;2.60;;
11447;SDS011;43755;49.736;8.734;2022-07-29T07:17:36;5.37;;;2.70;;
11447;SDS011;43755;49.736;8.734;2022-07-29T07:19:38;3.40;;;2.40;;
11447;SDS011;43755;49.736;8.734;2022-07-29T07:21:39;8.07;;;2.47;;
11447;SDS011;43755;49.736;8.734;2022-07-29T07:23:41;4.17;;;2.40;;
11447;SDS011;43755;49.736;8.734;2022-07-29T07:25:42;2.70;;;2.50;;
11447;SDS011;43755;49.736;8.734;2022-07-29T07:27:44;5.53;;;3.00;;
11447;SDS011;43755;49.736;8.734;2022-07-29T07:29:47;5.73;;;2.33;;
11447;SDS011;43755;49.736;8.734;2022-07-29T07:31:48;3.97;;;2.20;;
11447;SDS011;43755;49.736;8.734;2022-07-29T07:33:50;5.03;;;2.40;;
11447;SDS011;43755;49.736;8.734;2022-07-29T07:35:52;3.90;;;2.53;;
11447;SDS011;43755;49.736;8.734;2022-07-29T07:37:53;3.57;;;2.67;;
11447;SDS011;43755;49.736;8.734;2022-07-29T07:39:56;4.00;;;2.40;;
11447;SDS011;43755;49.736;8.734;2022-07-29T07:41:58;3.27;;;2.57;;
11447;SDS011;43755;49.736;8.734;2022-07-29T07:43:59;3.57;;;2.37;;
11447;SDS011;43755;49.736;8.734;2022-07-29T07:46:02;4.07;;;2.50;;
11447;SDS011;43755;49.736;8.734;2022-07-29T07:48:04;3.43;;;2.83;;
11447;SDS011;43755;49.736;8.734;2022-07-29T07:50:06;2.50;;;2.30;;
11447;SDS011;43755;49.736;8.734;2022-07-29T07:52:11;5.73;;;2.57;;
11447;SDS011;43755;49.736;8.734;2022-07-29T07:54:12;3.70;;;2.20;;
11447;SDS011;43755;49.736;8.734;2022-07-29T07:56:14;4.87;;;2.50;;
11447;SDS011;43755;49.736;8.734;2022-07-29T07:58:16;4.13;;;2.80;;
11447;SDS011;43755;49.736;8.734;2022-07-29T08:00:17;4.23;;;2.90;;
11447;SDS011;43755;49.736;8.734;2022-07-29T08:02:20;2.60;;;2.40;;
11447;SDS011;43755;49.736;8.734;2022-07-29T08:04:22;3.67;;;2.30;;
11447;SDS011;43755;49.736;8.734;2022-07-29T08:06:23;2.67;;;2.37;;
11447;SDS011;43755;49.736;8.734;2022-07-29T08:08:25;2.67;;;2.47;;
11447;SDS011;43755;49.736;8.734;2022-07-29T08:10:26;4.70;;;2.57;;
11447;SDS011;43755;49.736;8.734;2022-07-29T08:12:45;2.57;;;2.37;;
11447;SDS011;43755;49.736;8.734;2022-07-29T08:14:47;3.67;;;2.47;;
11447;SDS011;43755;49.736;8.734;2022-07-29T08:16:48;2.63;;;2.33;;
11447;SDS011;43755;49.736;8.734;2022-07-29T08:18:52;4.00;;;2.23;;
11447;SDS011;43755;49.736;8.734;2022-07-29T08:20:56;4.37;;;2.47;;
11447;SDS011;43755;49.736;8.734;2022-07-29T08:22:58;2.73;;;2.53;;
11447;SDS011;43755;49.736;8.734;2022-07-29T08:25:00;2.67;;;2.37;;
11447;SDS011;43755;49.736;8.734;2022-07-29T08:27:02;4.97;;;2.40;;
11447;SDS011;43755;49.736;8.734;2022-07-29T08:29:03;4.77;;;2.97;;
11447;SDS011;43755;49.736;8.734;2022-07-29T08:31:05;2.63;;;2.43;;
11447;SDS011;43755;49.736;8.734;2022-07-29T08:33:06;3.20;;;2.80;;
11447;SDS011;43755;49.736;8.734;2022-07-29T08:35:09;7.20;;;2.70;;
11447;SDS011;43755;49.736;8.734;2022-07-29T08:37:11;2.73;;;2.53;;
11447;SDS011;43755;49.736;8.734;2022-07-29T08:39:12;3.37;;;2.73;;
11447;SDS011;43755;49.736;8.734;2022-07-29T08:41:14;3.67;;;2.43;;
11447;SDS011;43755;49.736;8.734;2022-07-29T08:43:16;2.70;;;2.50;;
11447;SDS011;43755;49.736;8.734;2022-07-29T08:45:18;3.27;;;2.97;;
11447;SDS011;43755;49.736;8.734;2022-07-29T08:47:19;3.07;;;2.40;;
11447;SDS011;43755;49.736;8.734;2022-07-29T08:49:21;4.80;;;2.57;;
11447;SDS011;43755;49.736;8.734;2022-07-29T08:51:24;3.33;;;2.40;;
11447;SDS011;43755;49.736;8.734;2022-07-29T08:53:28;3.17;;;2.87;;
11447;SDS011;43755;49.736;8.734;2022-07-29T08:55:30;3.47;;;2.57;;
11447;SDS011;43755;49.736;8.734;2022-07-29T08:57:32;2.77;;;2.53;;
11447;SDS011;43755;49.736;8.734;2022-07-29T08:59:35;2.90;;;2.57;;
11447;SDS011;43755;49.736;8.734;2022-07-29T09:01:41;2.87;;;2.67;;
11447;SDS011;43755;49.736;8.734;2022-07-29T09:03:45;3.70;;;2.60;;
11447;SDS011;43755;49.736;8.734;2022-07-29T09:05:47;3.37;;;2.63;;
11447;SDS011;43755;49.736;8.734;2022-07-29T09:07:50;2.70;;;2.50;;
11447;SDS011;43755;49.736;8.734;2022-07-29T09:09:52;4.50;;;2.80;;
11447;SDS011;43755;49.736;8.734;2022-07-29T09:11:54;4.63;;;2.53;;
11447;SDS011;43755;49.736;8.734;2022-07-29T09:13:55;2.83;;;2.63;;
11447;SDS011;43755;49.736;8.734;2022-07-29T09:15:57;2.93;;;2.50;;
11447;SDS011;43755;49.736;8.734;2022-07-29T09:17:58;2.90;;;2.70;;
11447;SDS011;43755;49.736;8.734;2022-07-29T09:20:02;3.10;;;2.80;;
11447;SDS011;43755;49.736;8.734;2022-07-29T09:22:10;3.10;;;2.67;;
11447;SDS011;43755;49.736;8.734;2022-07-29T09:24:13;3.93;;;2.70;;
11447;SDS011;43755;49.736;8.734;2022-07-29T09:26:15;3.13;;;2.30;;
11447;SDS011;43755;49.736;8.734;2022-07-29T09:28:17;4.07;;;2.50;;
11447;SDS011;43755;49.736;8.734;2022-07-29T09:30:19;2.80;;;2.57;;
11447;SDS011;43755;49.736;8.734;2022-07-29T09:32:22;4.30;;;2.80;;
11447;SDS011;43755;49.736;8.734;2022-07-29T09:34:24;2.83;;;2.60;;
11447;SDS011;43755;49.736;8.734;2022-07-29T09:36:28;4.93;;;2.70;;
11447;SDS011;43755;49.736;8.734;2022-07-29T09:38:30;2.97;;;2.63;;
11447;SDS011;43755;49.736;8.734;2022-07-29T09:40:33;3.07;;;2.83;;
11447;SDS011;43755;49.736;8.734;2022-07-29T09:42:35;3.20;;;2.90;;
11447;SDS011;43755;49.736;8.734;2022-07-29T09:44:43;2.87;;;2.67;;
11447;SDS011;43755;49.736;8.734;2022-07-29T09:46:58;4.70;;;2.60;;
11447;SDS011;43755;49.736;8.734;2022-07-29T09:49:06;3.97;;;2.90;;
11447;SDS011;43755;49.736;8.734;2022-07-29T09:51:16;3.17;;;2.67;;
11447;SDS011;43755;49.736;8.734;2022-07-29T09:53:29;4.80;;;3.10;;
11447;SDS011;43755;49.736;8.734;2022-07-29T09:55:40;3.30;;;3.00;;
11447;SDS011;43755;49.736;8.734;2022-07-29T09:57:47;3.17;;;2.97;;
11447;SDS011;43755;49.736;8.734;2022-07-29T09:59:54;2.97;;;2.67;;
11447;SDS011;43755;49.736;8.734;2022-07-29T10:01:57;5.47;;;3.40;;
11447;SDS011;43755;49.736;8.734;2022-07-29T10:03:58;3.43;;;2.83;;
11447;SDS011;43755;49.736;8.734;2022-07-29T10:06:04;3.33;;;2.97;;
11447;SDS011;43755;49.736;8.734;2022-07-29T10:08:06;3.33;;;2.90;;
11447;SDS011;43755;49.736;8.734;2022-07-29T10:10:09;2.93;;;2.73;;
11447;SDS011;43755;49.736;8.734;2022-07-29T10:12:12;4.90;;;3.17;;
11447;SDS011;43755;49.736;8.734;2022-07-29T10:14:14;3.10;;;2.80;;
11447;SDS011;43755;49.736;8.734;2022-07-29T10:16:16;5.30;;;2.90;;
11447;SDS011;43755;49.736;8.734;2022-07-29T10:18:18;3.27;;;2.97;;
11447;SDS011;43755;49.736;8.734;2022-07-29T10:20:20;4.63;;;2.70;;
11447;SDS011;43755;49.736;8.734;2022-07-29T10:22:22;3.30;;;3.00;;
11447;SDS011;43755;49.736;8.734;2022-07-29T10:24:24;4.77;;;2.80;;
11447;SDS011;43755;49.736;8.734;2022-07-29T10:26:27;5.70;;;3.33;;
11447;SDS011;43755;49.736;8.734;2022-07-29T10:28:31;3.07;;;2.80;;
11447;SDS011;43755;49.736;8.734;2022-07-29T10:30:33;4.30;;;3.03;;
11447;SDS011;43755;49.736;8.734;2022-07-29T10:32:37;3.60;;;2.83;;
11447;SDS011;43755;49.736;8.734;2022-07-29T10:34:49;3.13;;;2.90;;
11447;SDS011;43755;49.736;8.734;2022-07-29T10:37:01;3.77;;;3.23;;
11447;SDS011;43755;49.736;8.734;2022-07-29T10:39:20;2.83;;;2.63;;
11447;SDS011;43755;49.736;8.734;2022-07-29T10:41:37;3.20;;;3.00;;
11447;SDS011;43755;49.736;8.734;2022-07-29T10:43:50;3.47;;;3.00;;
11447;SDS011;43755;49.736;8.734;2022-07-29T10:45:55;3.33;;;3.03;;
11447;SDS011;43755;49.736;8.734;2022-07-29T10:48:04;6.80;;;3.20;;
11447;SDS011;43755;49.736;8.734;2022-07-29T10:50:06;3.73;;;3.43;;
11447;SDS011;43755;49.736;8.734;2022-07-29T10:52:09;3.70;;;2.90;;
11447;SDS011;43755;49.736;8.734;2022-07-29T10:54:10;4.70;;;3.17;;
11447;SDS011;43755;49.736;8.734;2022-07-29T10:56:22;4.27;;;3.03;;
11447;SDS011;43755;49.736;8.734;2022-07-29T10:58:25;3.77;;;3.03;;
11447;SDS011;43755;49.736;8.734;2022-07-29T11:00:29;3.40;;;3.10;;
11447;SDS011;43755;49.736;8.734;2022-07-29T11:02:42;3.57;;;3.27;;
11447;SDS011;43755;49.736;8.734;2022-07-29T11:05:00;3.20;;;2.90;;
11447;SDS011;43755;49.736;8.734;2022-07-29T11:07:06;4.60;;;3.10;;
11447;SDS011;43755;49.736;8.734;2022-07-29T11:09:14;3.03;;;2.83;;
11447;SDS011;43755;49.736;8.734;2022-07-29T11:13:46;3.60;;;3.30;;
11447;SDS011;43755;49.736;8.734;2022-07-29T11:15:54;4.13;;;2.97;;
11447;SDS011;43755;49.736;8.734;2022-07-29T11:18:04;3.77;;;3.47;;
11447;SDS011;43755;49.736;8.734;2022-07-29T11:20:31;3.03;;;2.70;;
11447;SDS011;43755;49.736;8.734;2022-07-29T11:22:34;5.20;;;3.40;;
11447;SDS011;43755;49.736;8.734;2022-07-29T11:24:37;4.77;;;2.97;;
11447;SDS011;43755;49.736;8.734;2022-07-29T11:26:39;2.73;;;2.53;;
11447;SDS011;43755;49.736;8.734;2022-07-29T11:28:48;9.27;;;3.53;;
11447;SDS011;43755;49.736;8.734;2022-07-29T11:30:55;4.10;;;2.90;;
11447;SDS011;43755;49.736;8.734;2022-07-29T11:32:56;3.00;;;2.80;;
11447;SDS011;43755;49.736;8.734;2022-07-29T11:35:11;3.30;;;3.00;;
11447;SDS011;43755;49.736;8.734;2022-07-29T11:37:22;2.90;;;2.70;;
11447;SDS011;43755;49.736;8.734;2022-07-29T11:39:25;4.23;;;3.40;;
11447;SDS011;43755;49.736;8.734;2022-07-29T11:41:27;3.27;;;2.97;;
11447;SDS011;43755;49.736;8.734;2022-07-29T11:45:49;3.77;;;3.13;;
11447;SDS011;43755;49.736;8.734;2022-07-29T11:47:52;3.30;;;2.80;;
11447;SDS011;43755;49.736;8.734;2022-07-29T11:49:58;3.20;;;2.90;;
11447;SDS011;43755;49.736;8.734;2022-07-29T11:52:00;3.10;;;2.80;;
11447;SDS011;43755;49.736;8.734;2022-07-29T11:54:02;3.13;;;2.90;;
11447;SDS011;43755;49.736;8.734;2022-07-29T11:56:06;3.57;;;3.20;;
11447;SDS011;43755;49.736;8.734;2022-07-29T11:58:09;4.00;;;3.20;;
11447;SDS011;43755;49.736;8.734;2022-07-29T12:00:12;4.13;;;2.80;;
11447;SDS011;43755;49.736;8.734;2022-07-29T12:02:22;4.27;;;3.00;;
11447;SDS011;43755;49.736;8.734;2022-07-29T12:04:25;12.27;;;3.47;;
11447;SDS011;43755;49.736;8.734;2022-07-29T12:06:27;5.10;;;3.00;;
11447;SDS011;43755;49.736;8.734;2022-07-29T12:08:28;3.17;;;2.97;;
11447;SDS011;43755;49.736;8.734;2022-07-29T12:10:31;3.67;;;3.00;;
11447;SDS011;43755;49.736;8.734;2022-07-29T12:12:32;3.67;;;3.13;;
11447;SDS011;43755;49.736;8.734;2022-07-29T12:14:34;4.37;;;2.90;;
11447;SDS011;43755;49.736;8.734;2022-07-29T12:16:36;4.00;;;3.10;;
11447;SDS011;43755;49.736;8.734;2022-07-29T12:18:37;4.33;;;2.83;;
11447;SDS011;43755;49.736;8.734;2022-07-29T12:20:40;4.17;;;3.10;;
11447;SDS011;43755;49.736;8.734;2022-07-29T12:22:42;3.17;;;2.97;;
11447;SDS011;43755;49.736;8.734;2022-07-29T12:24:44;6.53;;;3.33;;
11447;SDS011;43755;49.736;8.734;2022-07-29T12:26:49;3.40;;;3.10;;
11447;SDS011;43755;49.736;8.734;2022-07-29T12:28:51;3.77;;;2.70;;
11447;SDS011;43755;49.736;8.734;2022-07-29T12:30:52;3.97;;;2.90;;
11447;SDS011;43755;49.736;8.734;2022-07-29T12:32:53;7.33;;;3.40;;
11447;SDS011;43755;49.736;8.734;2022-07-29T12:34:55;4.27;;;3.23;;